Time;durP1;ratioP1;P1;durP2;ratioP2;P2;SDS_P1;SDS_P2;PMS_P1;PMS_P2;Temp;Humidity;BMP_temperature;BMP_pressure;BME280_temperature;BME280_humidity;BME280_pressure;Samples;Min_cycle;Max_cycle;Signal;HPM_P1;HPM_P2
2023/10/06 15:55:34;;;;;;;16.90;3.83;;;;;;;;;;5121347;27;20140;-65
2023/10/06 15:58:04;;;;;;;13.73;4.05;;;;;;;;;;5104439;28;20043;-71
2023/10/06 16:00:30;;;;;;;8.43;3.50;;;;;;;;;;5099365;28;20036;-71
2023/10/06 16:03:02;;;;;;;11.07;4.10;;;;;;;;;;5099149;28;20040;-72
2023/10/06 16:05:29;;;;;;;10.60;3.67;;;;;;;;;;5099874;28;20036;-71
2023/10/06 16:07:55;;;;;;;10.90;3.92;;;;;;;;;;5101647;28;20048;-66
2023/10/06 16:10:25;;;;;;;15.55;3.25;;;;;;;;;;5107597;28;20071;-66
2023/10/06 16:12:53;;;;;;;10.73;2.95;;;;;;;;;;5100291;28;20489;-65
2023/10/06 16:15:21;;;;;;;8.13;3.33;;;;;;;;;;5103802;28;20109;-72
2023/10/06 16:17:52;;;;;;;6.20;3.08;;;;;;;;;;5099367;28;20511;-73
2023/10/06 16:20:19;;;;;;;13.27;4.10;;;;;;;;;;5097424;28;20055;-70
2023/10/06 16:22:45;;;;;;;9.13;3.70;;;;;;;;;;5099879;28;20040;-70
2023/10/06 16:25:12;;;;;;;9.43;3.42;;;;;;;;;;5092193;28;20534;-69
2023/10/06 16:27:39;;;;;;;8.82;3.30;;;;;;;;;;5101391;28;20162;-67
2023/10/06 16:30:07;;;;;;;10.45;3.47;;;;;;;;;;5101795;28;20105;-71
2023/10/06 16:32:34;;;;;;;9.20;3.92;;;;;;;;;;5098411;28;20055;-73
2023/10/06 16:35:01;;;;;;;6.53;3.00;;;;;;;;;;5102302;28;20048;-72
2023/10/06 16:37:30;;;;;;;6.80;2.70;;;;;;;;;;5101304;28;20036;-72
2023/10/06 16:39:57;;;;;;;8.13;3.33;;;;;;;;;;5096783;28;20128;-69
2023/10/06 16:42:24;;;;;;;7.57;2.45;;;;;;;;;;5102485;28;20140;-68
2023/10/06 16:44:52;;;;;;;12.85;3.75;;;;;;;;;;5103472;28;20488;-69
2023/10/06 16:47:18;;;;;;;8.32;2.67;;;;;;;;;;5100583;28;20089;-68
2023/10/06 16:49:45;;;;;;;7.93;3.17;;;;;;;;;;5095757;28;20043;-69
2023/10/06 16:52:11;;;;;;;8.57;3.10;;;;;;;;;;5102950;28;20448;-68
2023/10/06 16:54:42;;;;;;;6.55;2.97;;;;;;;;;;5100337;28;20123;-75
2023/10/06 16:57:08;;;;;;;9.77;3.42;;;;;;;;;;5102601;28;20090;-74
2023/10/06 16:59:36;;;;;;;7.90;2.72;;;;;;;;;;5100607;28;20036;-68
2023/10/06 17:02:04;;;;;;;8.77;2.97;;;;;;;;;;5098977;28;20421;-71
2023/10/06 17:04:31;;;;;;;7.60;2.97;;;;;;;;;;5103298;28;20063;-69
2023/10/06 17:06:58;;;;;;;5.90;2.50;;;;;;;;;;5085644;28;20097;-71
2023/10/06 17:09:31;;;;;;;9.02;2.97;;;;;;;;;;5083496;28;20048;-77
2023/10/06 17:11:59;;;;;;;8.20;2.60;;;;;;;;;;5074793;28;20418;-76
2023/10/06 17:14:27;;;;;;;8.02;2.75;;;;;;;;;;5083492;28;20462;-70
2023/10/06 17:16:56;;;;;;;10.98;3.20;;;;;;;;;;5075527;28;20047;-76
2023/10/06 17:19:22;;;;;;;8.88;2.47;;;;;;;;;;5081930;28;20047;-75
2023/10/06 17:21:49;;;;;;;8.68;2.88;;;;;;;;;;5083362;28;20487;-77
2023/10/06 17:24:16;;;;;;;5.80;2.08;;;;;;;;;;5077703;28;20040;-75
2023/10/06 17:26:42;;;;;;;9.25;2.45;;;;;;;;;;5077748;28;20481;-71
2023/10/06 17:29:29;;;;;;;9.52;2.72;;;;;;;;;;5088704;28;20048;-72
2023/10/06 17:31:57;;;;;;;4.85;2.33;;;;;;;;;;5088232;28;20067;-77
2023/10/06 17:34:24;;;;;;;9.38;2.50;;;;;;;;;;5086000;28;20048;-70
2023/10/06 17:36:50;;;;;;;12.43;2.90;;;;;;;;;;5078900;28;20496;-72
2023/10/06 17:39:37;;;;;;;7.40;2.67;;;;;;;;;;5079815;28;20044;-71
2023/10/06 17:42:03;;;;;;;9.63;3.00;;;;;;;;;;5081112;28;20129;-73
2023/10/06 17:44:30;;;;;;;11.88;2.53;;;;;;;;;;5085473;28;20072;-76
2023/10/06 17:46:57;;;;;;;5.38;2.45;;;;;;;;;;5085163;28;20044;-73
2023/10/06 17:49:23;;;;;;;10.25;2.53;;;;;;;;;;5086895;28;20211;-74
2023/10/06 17:51:49;;;;;;;7.25;2.45;;;;;;;;;;5086058;28;20044;-71
2023/10/06 17:54:16;;;;;;;5.07;3.22;;;;;;;;;;5084331;28;20547;-74
2023/10/06 17:56:42;;;;;;;5.18;2.38;;;;;;;;;;5079889;28;20078;-72
2023/10/06 17:59:15;;;;;;;8.45;3.45;;;;;;;;;;5072653;28;20044;-73
2023/10/06 18:01:42;;;;;;;5.80;2.60;;;;;;;;;;5086803;28;20050;-72
2023/10/06 18:04:09;;;;;;;8.55;2.78;;;;;;;;;;5076194;28;20485;-72
2023/10/06 18:06:36;;;;;;;4.63;2.60;;;;;;;;;;5079838;28;20044;-73
2023/10/06 18:09:03;;;;;;;8.15;3.55;;;;;;;;;;5079345;28;20107;-73
2023/10/06 18:11:30;;;;;;;9.95;2.70;;;;;;;;;;5083735;28;20044;-70
2023/10/06 18:13:56;;;;;;;7.47;2.60;;;;;;;;;;5081032;28;20125;-72
2023/10/06 18:16:25;;;;;;;5.95;2.72;;;;;;;;;;5085615;28;20052;-73
2023/10/06 18:18:51;;;;;;;5.93;2.40;;;;;;;;;;5081895;28;20123;-65
2023/10/06 18:21:18;;;;;;;7.15;3.40;;;;;;;;;;5079788;28;20049;-65
2023/10/06 18:23:45;;;;;;;10.65;3.17;;;;;;;;;;5081533;28;20155;-66
2023/10/06 18:26:12;;;;;;;7.03;2.85;;;;;;;;;;5087576;28;20036;-66
2023/10/06 18:28:40;;;;;;;7.60;2.38;;;;;;;;;;5080967;28;20044;-67
2023/10/06 18:31:07;;;;;;;10.43;2.70;;;;;;;;;;5088177;28;20123;-67
2023/10/06 18:33:33;;;;;;;10.93;3.15;;;;;;;;;;5084490;28;20052;-73
2023/10/06 18:36:00;;;;;;;7.65;3.17;;;;;;;;;;5084173;28;20452;-72
2023/10/06 18:38:27;;;;;;;6.63;2.72;;;;;;;;;;5079557;28;20044;-70
2023/10/06 18:40:58;;;;;;;14.43;2.80;;;;;;;;;;5085755;28;20047;-74
2023/10/06 18:43:25;;;;;;;8.48;2.40;;;;;;;;;;5087340;28;20051;-76
2023/10/06 18:45:55;;;;;;;5.90;2.47;;;;;;;;;;5084227;28;20032;-74
2023/10/06 18:48:23;;;;;;;7.28;2.83;;;;;;;;;;5084618;28;20119;-75
2023/10/06 18:50:53;;;;;;;7.47;2.55;;;;;;;;;;5087170;28;20456;-76
2023/10/06 18:53:20;;;;;;;4.73;2.33;;;;;;;;;;5082639;28;20092;-74
2023/10/06 18:55:50;;;;;;;7.07;2.65;;;;;;;;;;5082791;28;20071;-71
2023/10/06 18:58:17;;;;;;;7.53;3.30;;;;;;;;;;5083842;28;20094;-71
2023/10/06 19:00:48;;;;;;;6.80;2.83;;;;;;;;;;5085166;28;20036;-70
2023/10/06 19:03:16;;;;;;;7.63;3.00;;;;;;;;;;5084855;28;20038;-70
2023/10/06 19:05:47;;;;;;;5.18;2.22;;;;;;;;;;5081172;28;20048;-67
2023/10/06 19:08:15;;;;;;;9.00;3.10;;;;;;;;;;5075755;28;20119;-67
2023/10/06 19:10:45;;;;;;;8.48;2.40;;;;;;;;;;5081181;28;20115;-75
2023/10/06 19:13:13;;;;;;;5.50;2.20;;;;;;;;;;5080020;28;20651;-67
2023/10/06 19:15:42;;;;;;;5.50;2.30;;;;;;;;;;5081193;28;20109;-70
2023/10/06 19:18:11;;;;;;;4.68;2.22;;;;;;;;;;5077582;28;20131;-69
2023/10/06 19:20:38;;;;;;;4.57;2.00;;;;;;;;;;5077569;28;20032;-66
2023/10/06 19:23:05;;;;;;;5.82;2.17;;;;;;;;;;5080040;28;20047;-73
2023/10/06 19:25:38;;;;;;;6.82;2.35;;;;;;;;;;5079833;28;20566;-73
2023/10/06 19:28:04;;;;;;;5.30;2.63;;;;;;;;;;5080084;28;20083;-72
2023/10/06 19:30:31;;;;;;;5.30;2.00;;;;;;;;;;5078119;28;20076;-72
2023/10/06 19:32:57;;;;;;;5.95;2.25;;;;;;;;;;5076183;28;20110;-68
2023/10/06 19:35:24;;;;;;;5.38;2.08;;;;;;;;;;5084876;28;20047;-68
2023/10/06 19:37:50;;;;;;;8.52;2.28;;;;;;;;;;5084909;28;20115;-68
2023/10/06 19:40:17;;;;;;;4.75;2.17;;;;;;;;;;5075373;28;20043;-70
2023/10/06 19:42:43;;;;;;;6.57;2.00;;;;;;;;;;5081424;28;20043;-67
2023/10/06 19:45:10;;;;;;;6.90;2.60;;;;;;;;;;5079326;28;20043;-74
2023/10/06 19:47:36;;;;;;;6.72;1.90;;;;;;;;;;5079977;28;20080;-70
2023/10/06 19:50:11;;;;;;;5.93;2.67;;;;;;;;;;5079145;28;20093;-70
2023/10/06 19:52:41;;;;;;;8.15;2.80;;;;;;;;;;5072433;28;20044;-74
2023/10/06 19:55:07;;;;;;;7.18;3.35;;;;;;;;;;5080064;28;20738;-71
2023/10/06 19:57:34;;;;;;;12.63;2.72;;;;;;;;;;5080388;28;20556;-77
2023/10/06 20:00:04;;;;;;;5.00;2.30;;;;;;;;;;5080485;28;20052;-72
2023/10/06 20:02:30;;;;;;;5.35;1.98;;;;;;;;;;5083544;28;20076;-77
2023/10/06 20:04:57;;;;;;;10.07;2.97;;;;;;;;;;5083548;28;20451;-73
2023/10/06 20:07:24;;;;;;;7.63;2.72;;;;;;;;;;5081980;28;20067;-75
2023/10/06 20:09:51;;;;;;;4.78;2.20;;;;;;;;;;5081894;28;20051;-74
2023/10/06 20:12:17;;;;;;;8.73;2.40;;;;;;;;;;5081695;28;20115;-72
2023/10/06 20:14:44;;;;;;;10.27;2.60;;;;;;;;;;5082808;28;20537;-72
2023/10/06 20:17:12;;;;;;;6.13;2.10;;;;;;;;;;5080011;28;20659;-67
2023/10/06 20:19:39;;;;;;;6.40;2.80;;;;;;;;;;5070970;28;20401;-67
2023/10/06 20:22:06;;;;;;;4.80;2.65;;;;;;;;;;5080205;28;20036;-68
2023/10/06 20:24:32;;;;;;;6.22;2.38;;;;;;;;;;5081889;28;20083;-69
2023/10/06 20:26:59;;;;;;;6.97;2.30;;;;;;;;;;5082442;28;20040;-70
2023/10/06 20:29:28;;;;;;;6.22;2.42;;;;;;;;;;5080921;28;20118;-75
2023/10/06 20:31:56;;;;;;;3.60;2.30;;;;;;;;;;5079699;28;20663;-74
2023/10/06 20:34:22;;;;;;;4.75;2.10;;;;;;;;;;5080562;28;20040;-76
2023/10/06 21:26:00;;;;;;;11.07;2.50;;;;;;;;;;5124091;27;20151;-71
2023/10/06 21:28:28;;;;;;;6.07;2.53;;;;;;;;;;5084978;28;20054;-70
2023/10/06 21:30:55;;;;;;;11.35;2.80;;;;;;;;;;5108770;28;20062;-71
2023/10/06 21:33:23;;;;;;;4.75;2.70;;;;;;;;;;5104658;28;20129;-68
2023/10/06 21:35:50;;;;;;;7.43;2.75;;;;;;;;;;5082033;28;20082;-72
2023/10/06 21:38:16;;;;;;;6.13;2.72;;;;;;;;;;5083793;28;20132;-74
2023/10/06 21:40:43;;;;;;;15.27;3.83;;;;;;;;;;5103404;28;20182;-70
2023/10/06 21:43:10;;;;;;;9.32;2.53;;;;;;;;;;5091353;28;20058;-70
2023/10/06 21:45:38;;;;;;;7.28;2.42;;;;;;;;;;5124699;27;20097;-73
2023/10/06 21:48:04;;;;;;;4.97;2.38;;;;;;;;;;5113710;27;20047;-74
2023/10/06 21:50:32;;;;;;;8.65;3.38;;;;;;;;;;5097291;28;20051;-70
2023/10/06 21:52:58;;;;;;;4.80;1.90;;;;;;;;;;5104944;28;20055;-71
2023/10/06 21:55:25;;;;;;;8.30;3.05;;;;;;;;;;5094406;28;20393;-74
2023/10/06 21:57:51;;;;;;;7.63;3.13;;;;;;;;;;5104003;28;20044;-72
2023/10/06 22:00:29;;;;;;;6.95;2.95;;;;;;;;;;5103363;28;20056;-71
2023/10/06 22:02:55;;;;;;;7.07;2.30;;;;;;;;;;5088622;28;20055;-70
2023/10/06 22:05:22;;;;;;;7.47;2.95;;;;;;;;;;5103709;28;20127;-73
2023/10/06 22:07:51;;;;;;;6.38;2.70;;;;;;;;;;5103746;28;20052;-71
2023/10/06 22:10:18;;;;;;;5.60;2.50;;;;;;;;;;5102558;28;20101;-73
2023/10/06 22:12:47;;;;;;;7.75;3.05;;;;;;;;;;5103625;28;20122;-73
2023/10/06 22:15:14;;;;;;;9.05;3.25;;;;;;;;;;5103572;28;20048;-72
2023/10/06 22:17:41;;;;;;;7.97;2.22;;;;;;;;;;5085806;28;20105;-72
2023/10/06 22:20:08;;;;;;;7.18;2.85;;;;;;;;;;5103894;28;20043;-71
2023/10/06 22:22:36;;;;;;;10.85;2.72;;;;;;;;;;5103954;28;20475;-71
2023/10/06 22:25:04;;;;;;;5.55;2.80;;;;;;;;;;5103797;28;20484;-72
2023/10/06 22:27:31;;;;;;;7.72;2.42;;;;;;;;;;5101290;28;20742;-71
2023/10/06 22:29:58;;;;;;;7.38;2.65;;;;;;;;;;5102978;28;20130;-73
2023/10/06 22:32:24;;;;;;;6.93;2.00;;;;;;;;;;5104528;28;20079;-72
2023/10/06 22:34:51;;;;;;;6.18;2.88;;;;;;;;;;5104332;28;20648;-72
2023/10/06 22:37:18;;;;;;;11.18;3.65;;;;;;;;;;5090985;28;20075;-72
2023/10/06 22:39:45;;;;;;;11.02;2.90;;;;;;;;;;5088395;28;20520;-72
2023/10/06 22:42:12;;;;;;;10.13;3.85;;;;;;;;;;5091290;28;20075;-72
2023/10/06 22:44:39;;;;;;;7.72;2.60;;;;;;;;;;5090830;28;20127;-72
2023/10/06 22:47:06;;;;;;;6.82;2.60;;;;;;;;;;5090885;28;20044;-74
2023/10/06 22:49:33;;;;;;;7.22;2.65;;;;;;;;;;5090746;28;20044;-72
2023/10/06 22:51:59;;;;;;;9.23;2.20;;;;;;;;;;5090704;28;20079;-71
2023/10/06 22:54:26;;;;;;;7.53;2.72;;;;;;;;;;5087915;28;20473;-71
2023/10/06 22:56:52;;;;;;;9.13;3.33;;;;;;;;;;5090391;28;20648;-71
2023/10/06 22:59:20;;;;;;;7.03;2.83;;;;;;;;;;5104715;28;20086;-71
2023/10/06 23:01:48;;;;;;;8.25;2.55;;;;;;;;;;5087675;28;20124;-72
2023/10/06 23:04:15;;;;;;;6.15;2.45;;;;;;;;;;5090701;28;20059;-71
2023/10/06 23:06:42;;;;;;;11.80;3.90;;;;;;;;;;5089465;28;20052;-71
2023/10/06 23:09:12;;;;;;;5.78;2.47;;;;;;;;;;5090669;28;20044;-72
2023/10/06 23:11:39;;;;;;;8.03;2.77;;;;;;;;;;5091088;28;20060;-71
2023/10/06 23:14:08;;;;;;;6.53;2.53;;;;;;;;;;5089455;28;20044;-72
2023/10/06 23:16:39;;;;;;;6.88;2.65;;;;;;;;;;5089780;28;20048;-72
2023/10/06 23:19:05;;;;;;;10.68;3.58;;;;;;;;;;5088407;28;20484;-72
2023/10/06 23:21:34;;;;;;;12.98;3.65;;;;;;;;;;5086999;28;20076;-72
2023/10/06 23:24:07;;;;;;;10.40;3.10;;;;;;;;;;5089662;28;20420;-72
2023/10/06 23:26:36;;;;;;;7.47;3.13;;;;;;;;;;5090327;28;20085;-72
2023/10/06 23:29:02;;;;;;;5.38;2.38;;;;;;;;;;5089774;28;20048;-71
2023/10/06 23:31:31;;;;;;;9.32;3.38;;;;;;;;;;5089904;28;20051;-72
2023/10/06 23:33:57;;;;;;;6.00;2.83;;;;;;;;;;5089423;28;20123;-72
2023/10/06 23:36:24;;;;;;;8.18;2.80;;;;;;;;;;5090288;28;20131;-71
2023/10/06 23:38:50;;;;;;;8.95;3.28;;;;;;;;;;5089688;28;20048;-72
2023/10/06 23:41:17;;;;;;;12.68;3.63;;;;;;;;;;5084020;28;20801;-72
2023/10/06 23:43:44;;;;;;;11.57;3.50;;;;;;;;;;5089310;28;20087;-72
2023/10/06 23:46:17;;;;;;;10.02;2.90;;;;;;;;;;5089117;28;20056;-72
2023/10/06 23:48:46;;;;;;;9.38;2.90;;;;;;;;;;5088421;28;20054;-72
2023/10/06 23:51:13;;;;;;;9.38;2.88;;;;;;;;;;5089379;28;20146;-72
2023/10/06 23:53:42;;;;;;;9.98;2.85;;;;;;;;;;5089253;28;20044;-70
2023/10/06 23:56:24;;;;;;;8.95;2.90;;;;;;;;;;5089355;28;20044;-72
2023/10/06 23:58:55;;;;;;;10.27;3.03;;;;;;;;;;5089353;28;20120;-72
